Time;durP1;ratioP1;P1;durP2;ratioP2;P2;SDS_P1;SDS_P2;PMS_P1;PMS_P2;Temp;Humidity;BMP_temperature;BMP_pressure;BME280_temperature;BME280_humidity;BME280_pressure;Samples;Min_cycle;Max_cycle;Signal;HPM_P1;HPM_P2
2024/02/19 00:00:24;;;;;;;0.10;0.10;;;9.00;99.90;;;;;;5002986;28;20217;-91
2024/02/19 00:02:51;;;;;;;1.80;0.50;;;9.10;99.90;;;;;;5002465;28;20219;-91
2024/02/19 00:05:16;;;;;;;19.23;0.93;;;9.00;99.90;;;;;;5002489;28;20278;-90
2024/02/19 00:07:42;;;;;;;0.10;0.10;;;8.90;99.90;;;;;;4993618;28;20203;-90
2024/02/19 00:10:08;;;;;;;1.40;0.47;;;9.00;99.90;;;;;;5001038;28;20242;-91
2024/02/19 00:12:34;;;;;;;0.10;0.10;;;8.90;99.90;;;;;;4996710;28;20313;-90
2024/02/19 00:15:00;;;;;;;0.17;0.17;;;9.00;99.90;;;;;;5008976;28;20234;-91
2024/02/19 00:17:26;;;;;;;0.67;0.67;;;9.00;99.90;;;;;;4992581;28;20207;-90
2024/02/19 00:19:51;;;;;;;0.10;0.10;;;8.70;99.90;;;;;;5009224;28;20199;-91
2024/02/19 00:22:17;;;;;;;12.53;0.63;;;8.70;99.90;;;;;;5014512;28;20285;-90
2024/02/19 00:24:44;;;;;;;0.27;0.27;;;8.80;99.90;;;;;;4996628;28;20227;-90
2024/02/19 00:27:09;;;;;;;0.10;0.10;;;8.80;99.90;;;;;;4992900;28;20223;-90
2024/02/19 00:29:35;;;;;;;0.77;0.77;;;9.00;99.90;;;;;;4992576;28;21443;-90
2024/02/19 00:32:02;;;;;;;0.13;0.13;;;9.10;99.90;;;;;;4992638;28;20230;-90
2024/02/19 00:34:28;;;;;;;0.10;0.10;;;9.00;99.90;;;;;;5000230;28;20276;-90
2024/02/19 00:36:54;;;;;;;0.10;0.10;;;9.00;99.90;;;;;;4994162;28;20219;-90
2024/02/19 00:39:20;;;;;;;0.40;0.40;;;8.40;99.90;;;;;;4992134;28;20227;-90
2024/02/19 00:41:46;;;;;;;1.63;1.10;;;8.40;99.90;;;;;;4993643;28;20252;-89
2024/02/19 00:44:12;;;;;;;2.83;0.50;;;8.90;99.90;;;;;;5003403;28;20206;-89
2024/02/19 00:46:38;;;;;;;0.10;0.10;;;8.40;99.90;;;;;;4991507;28;20338;-90
2024/02/19 00:49:04;;;;;;;0.10;0.10;;;8.50;99.90;;;;;;4991726;28;20215;-90
2024/02/19 00:51:34;;;;;;;0.20;0.20;;;8.50;99.90;;;;;;4991525;28;20266;-89
2024/02/19 00:54:00;;;;;;;0.30;0.30;;;8.70;99.90;;;;;;5007414;28;20227;-90
2024/02/19 00:56:26;;;;;;;0.23;0.23;;;8.60;99.90;;;;;;4992661;28;20732;-90
2024/02/19 00:58:52;;;;;;;3.13;1.03;;;9.00;99.90;;;;;;5002634;28;20199;-89
2024/02/19 01:01:18;;;;;;;6.63;0.47;;;8.90;99.90;;;;;;4991602;28;20321;-90
2024/02/19 01:03:44;;;;;;;0.60;0.60;;;9.00;99.90;;;;;;4998079;28;20227;-90
2024/02/19 01:06:10;;;;;;;0.97;0.87;;;9.00;99.90;;;;;;5015315;28;20238;-90
2024/02/19 01:08:36;;;;;;;3.10;0.63;;;8.70;99.90;;;;;;5015237;28;20234;-89
2024/02/19 01:11:01;;;;;;;0.77;0.77;;;8.90;99.90;;;;;;5002420;28;20222;-90
2024/02/19 01:13:27;;;;;;;0.17;0.17;;;8.60;99.90;;;;;;5015684;28;20238;-89
2024/02/19 01:15:53;;;;;;;12.43;1.03;;;9.00;99.90;;;;;;5015466;28;20229;-89
2024/02/19 01:18:20;;;;;;;2.20;1.80;;;8.80;99.90;;;;;;4999910;28;20223;-90
2024/02/19 01:20:46;;;;;;;2.63;0.43;;;8.40;99.90;;;;;;4999930;28;20587;-90
2024/02/19 01:23:12;;;;;;;0.17;0.17;;;8.70;99.90;;;;;;4999581;28;20227;-90
2024/02/19 01:25:37;;;;;;;2.63;2.53;;;8.60;99.90;;;;;;4990809;28;20215;-90
2024/02/19 01:28:04;;;;;;;0.10;0.10;;;8.70;99.90;;;;;;4985955;28;20309;-90
2024/02/19 01:30:31;;;;;;;0.67;0.67;;;8.50;99.90;;;;;;5012787;28;20288;-90
2024/02/19 01:32:56;;;;;;;0.10;0.10;;;8.80;99.90;;;;;;4996558;28;20332;-90
2024/02/19 01:35:22;;;;;;;0.47;0.47;;;8.90;99.90;;;;;;4991165;28;20318;-91
2024/02/19 01:37:48;;;;;;;0.10;0.10;;;8.70;99.90;;;;;;5007982;28;21186;-89
2024/02/19 01:40:14;;;;;;;0.47;0.47;;;8.70;99.90;;;;;;4990564;28;20226;-90
2024/02/19 01:42:39;;;;;;;17.20;0.77;;;8.70;99.90;;;;;;4990662;28;20245;-90
2024/02/19 01:45:17;;;;;;;0.43;0.40;;;9.10;99.90;;;;;;5010455;28;20261;-90
2024/02/19 01:47:43;;;;;;;0.60;0.60;;;9.00;99.90;;;;;;5014760;28;20262;-90
2024/02/19 01:50:09;;;;;;;0.37;0.37;;;8.80;99.90;;;;;;4991458;28;20409;-90
2024/02/19 01:52:35;;;;;;;0.10;0.10;;;9.00;99.90;;;;;;4986793;28;20700;-90
2024/02/19 01:55:01;;;;;;;1.50;0.50;;;8.70;99.90;;;;;;4988256;28;20227;-90
2024/02/19 01:57:27;;;;;;;0.20;0.20;;;8.90;99.90;;;;;;4965831;28;20227;-90
2024/02/19 01:59:54;;;;;;;0.20;0.20;;;9.00;99.90;;;;;;4993501;28;20227;-90
2024/02/19 02:02:21;;;;;;;0.10;0.10;;;8.80;99.90;;;;;;4992284;28;20273;-90
2024/02/19 02:04:48;;;;;;;0.80;0.80;;;9.00;99.90;;;;;;5001317;28;20702;-90
2024/02/19 02:07:15;;;;;;;1.53;1.43;;;8.70;99.90;;;;;;5008349;28;20219;-90
2024/02/19 02:09:41;;;;;;;8.57;0.67;;;8.60;99.90;;;;;;4989595;28;20757;-90
2024/02/19 02:12:07;;;;;;;0.10;0.10;;;9.00;99.90;;;;;;4990444;28;20596;-90
2024/02/19 02:14:33;;;;;;;7.87;1.23;;;8.60;99.90;;;;;;4992853;28;20204;-90
2024/02/19 02:16:58;;;;;;;2.13;0.40;;;8.80;99.90;;;;;;4983717;28;20238;-90
2024/02/19 02:19:24;;;;;;;0.10;0.10;;;8.60;99.90;;;;;;4999167;28;20246;-90
2024/02/19 02:21:50;;;;;;;5.10;0.50;;;8.40;99.90;;;;;;4996417;28;20356;-90
2024/02/19 02:24:16;;;;;;;1.57;1.47;;;8.50;99.90;;;;;;4996232;28;20218;-90
2024/02/19 02:26:42;;;;;;;0.20;0.20;;;8.60;99.90;;;;;;5000420;28;20229;-90
2024/02/19 02:29:07;;;;;;;1.07;1.07;;;8.80;99.90;;;;;;4985673;28;20276;-91
2024/02/19 02:31:33;;;;;;;2.97;0.37;;;8.80;99.90;;;;;;5018024;28;20321;-90
2024/02/19 02:33:59;;;;;;;0.10;0.10;;;8.70;99.90;;;;;;4998973;28;20214;-90
2024/02/19 02:36:25;;;;;;;1.97;0.77;;;8.60;99.90;;;;;;5000115;28;20233;-90
2024/02/19 02:38:51;;;;;;;14.63;0.70;;;8.70;99.90;;;;;;5001194;28;20222;-90
2024/02/19 02:41:17;;;;;;;13.43;1.30;;;8.90;99.90;;;;;;5016501;28;20206;-91
2024/02/19 02:43:43;;;;;;;0.10;0.10;;;8.60;99.90;;;;;;4994147;28;20209;-90
2024/02/19 02:46:08;;;;;;;13.27;2.10;;;8.70;99.90;;;;;;4998309;28;20214;-90
2024/02/19 02:48:34;;;;;;;7.50;4.20;;;8.80;99.90;;;;;;5000187;28;20213;-90
2024/02/19 02:51:00;;;;;;;0.13;0.13;;;8.90;99.90;;;;;;5003080;28;20392;-90
2024/02/19 02:53:26;;;;;;;1.50;0.70;;;8.80;99.90;;;;;;5004217;28;20206;-90
2024/02/19 02:55:51;;;;;;;3.10;1.17;;;8.80;99.90;;;;;;5020164;28;20225;-90
2024/02/19 02:58:17;;;;;;;0.20;0.20;;;9.00;99.90;;;;;;5013382;28;20234;-90
2024/02/19 03:00:43;;;;;;;2.00;0.67;;;8.70;99.90;;;;;;5001322;28;20772;-90
2024/02/19 03:03:09;;;;;;;11.03;1.20;;;9.10;99.90;;;;;;5005570;28;20257;-89
2024/02/19 03:05:36;;;;;;;2.17;0.70;;;9.00;99.90;;;;;;5021615;28;20225;-90
2024/02/19 03:08:02;;;;;;;0.40;0.33;;;8.70;99.90;;;;;;5021164;28;20226;-90
2024/02/19 03:10:28;;;;;;;9.27;1.27;;;8.70;99.90;;;;;;5002091;28;20265;-90
2024/02/19 03:12:54;;;;;;;0.57;0.57;;;9.10;99.90;;;;;;5030209;28;20230;-90
2024/02/19 03:15:20;;;;;;;0.70;0.67;;;9.10;99.90;;;;;;5013239;28;20272;-90
2024/02/19 03:17:45;;;;;;;0.53;0.33;;;8.80;99.90;;;;;;4997579;28;21141;-90
2024/02/19 03:20:18;;;;;;;28.30;2.53;;;9.20;99.90;;;;;;5006708;28;20241;-90
2024/02/19 03:22:44;;;;;;;0.77;0.77;;;8.90;99.90;;;;;;5005143;28;20308;-90
2024/02/19 03:25:10;;;;;;;6.83;0.90;;;9.00;99.90;;;;;;4989128;28;20281;-90
2024/02/19 03:27:37;;;;;;;0.13;0.13;;;9.20;99.90;;;;;;5004886;28;20707;-90
2024/02/19 03:30:03;;;;;;;1.67;0.63;;;8.90;99.90;;;;;;4997170;28;20225;-90
2024/02/19 03:32:29;;;;;;;2.77;1.50;;;9.20;99.90;;;;;;4995657;28;20277;-89
2024/02/19 03:34:55;;;;;;;2.50;2.40;;;9.10;99.90;;;;;;4997316;28;20230;-90
2024/02/19 03:37:22;;;;;;;24.83;2.03;;;8.90;99.90;;;;;;5000431;28;20241;-90
2024/02/19 03:39:47;;;;;;;1.50;0.80;;;9.00;99.90;;;;;;5001906;28;20227;-90
2024/02/19 03:42:13;;;;;;;2.20;1.13;;;9.20;99.90;;;;;;4993638;28;20226;-90
2024/02/19 03:44:39;;;;;;;1.43;1.33;;;9.30;99.90;;;;;;4969223;28;20335;-91
2024/02/19 03:47:07;;;;;;;1.27;1.23;;;9.00;99.90;;;;;;4976953;28;20307;-90
2024/02/19 03:49:33;;;;;;;10.50;1.63;;;8.90;99.90;;;;;;4976306;28;20302;-90
2024/02/19 03:51:59;;;;;;;16.93;1.63;;;9.20;99.90;;;;;;4951887;28;20330;-91
2024/02/19 03:54:24;;;;;;;3.40;1.70;;;9.30;99.90;;;;;;4982982;28;20254;-90
2024/02/19 03:56:51;;;;;;;2.83;0.80;;;9.30;99.90;;;;;;4967730;28;20663;-91
2024/02/19 03:59:19;;;;;;;1.17;1.17;;;9.00;99.90;;;;;;5002812;28;20560;-90
2024/02/19 04:01:45;;;;;;;4.83;0.97;;;9.30;99.90;;;;;;5003230;28;20196;-90
2024/02/19 04:04:11;;;;;;;27.27;2.10;;;9.00;99.90;;;;;;5001411;28;20221;-91
2024/02/19 04:06:36;;;;;;;7.20;1.33;;;9.20;99.90;;;;;;5002538;28;20249;-90
2024/02/19 04:09:02;;;;;;;1.50;0.50;;;9.00;99.90;;;;;;5011066;28;20233;-90
2024/02/19 04:11:28;;;;;;;1.33;0.90;;;9.20;99.90;;;;;;5011349;28;20288;-90
2024/02/19 04:13:54;;;;;;;0.43;0.43;;;9.30;99.90;;;;;;5019549;28;20210;-90
2024/02/19 04:16:20;;;;;;;6.27;3.00;;;9.00;99.90;;;;;;5004348;28;20222;-91
2024/02/19 04:18:46;;;;;;;2.83;0.70;;;9.30;99.90;;;;;;5016874;28;20227;-90
2024/02/19 04:21:11;;;;;;;0.70;0.70;;;9.20;99.90;;;;;;5018527;28;20591;-90
2024/02/19 04:23:37;;;;;;;2.93;1.37;;;9.40;99.90;;;;;;4995670;28;20299;-90
2024/02/19 04:26:03;;;;;;;0.97;0.93;;;9.40;99.90;;;;;;5011040;28;20202;-90
2024/02/19 04:28:29;;;;;;;7.97;1.00;;;9.30;99.90;;;;;;5033296;28;20226;-90
2024/02/19 04:30:54;;;;;;;0.73;0.50;;;9.30;99.90;;;;;;4999794;28;20219;-90
2024/02/19 04:33:23;;;;;;;2.63;1.03;;;9.20;99.90;;;;;;5000455;28;20218;-90
2024/02/19 04:35:49;;;;;;;2.43;0.90;;;9.40;99.90;;;;;;5010077;28;20221;-90
2024/02/19 04:38:15;;;;;;;1.27;1.27;;;9.40;99.90;;;;;;4994632;28;20202;-90
2024/02/19 04:40:41;;;;;;;2.03;1.67;;;9.20;99.90;;;;;;5011611;28;20194;-90
2024/02/19 04:43:07;;;;;;;0.73;0.73;;;9.50;99.90;;;;;;5001778;28;20276;-90
2024/02/19 04:45:32;;;;;;;1.83;1.10;;;9.30;99.90;;;;;;4999172;28;20365;-90
2024/02/19 04:47:58;;;;;;;7.10;0.97;;;9.40;99.90;;;;;;4996781;28;20249;-90
2024/02/19 04:50:24;;;;;;;1.27;1.07;;;9.30;99.90;;;;;;5016322;28;20577;-90
2024/02/19 04:52:49;;;;;;;1.00;0.40;;;9.40;99.90;;;;;;5018218;28;20691;-90
2024/02/19 04:55:15;;;;;;;1.33;0.80;;;9.40;99.90;;;;;;4995430;28;20214;-91
2024/02/19 04:57:41;;;;;;;3.60;0.67;;;9.20;99.90;;;;;;5014116;28;20231;-90
2024/02/19 05:00:07;;;;;;;0.40;0.40;;;9.10;99.90;;;;;;5002958;28;20310;-91
2024/02/19 05:02:33;;;;;;;0.97;0.63;;;9.40;99.90;;;;;;5000783;28;20205;-91
2024/02/19 05:04:59;;;;;;;1.10;0.40;;;9.20;99.90;;;;;;5009719;28;20651;-91
2024/02/19 05:07:25;;;;;;;6.60;1.07;;;9.10;99.90;;;;;;5001493;28;20241;-90
2024/02/19 05:09:50;;;;;;;2.13;1.17;;;9.20;99.90;;;;;;5000929;28;20725;-90
2024/02/19 05:12:16;;;;;;;0.77;0.77;;;9.20;99.90;;;;;;4999605;28;20864;-89
2024/02/19 05:14:42;;;;;;;1.57;0.63;;;9.30;99.90;;;;;;5008992;28;20222;-90
2024/02/19 05:17:09;;;;;;;4.63;0.50;;;9.50;99.90;;;;;;5001083;28;20206;-90
2024/02/19 05:19:35;;;;;;;0.50;0.50;;;9.40;99.90;;;;;;5017509;28;20237;-91
2024/02/19 05:22:00;;;;;;;1.10;0.40;;;9.20;99.90;;;;;;4996826;28;20222;-90
2024/02/19 05:24:26;;;;;;;7.53;1.37;;;9.40;99.90;;;;;;5002947;28;20318;-90
2024/02/19 05:26:52;;;;;;;4.40;1.50;;;9.30;99.90;;;;;;5009953;28;20218;-90
2024/02/19 05:29:19;;;;;;;2.70;1.17;;;9.50;99.90;;;;;;4993505;28;20565;-90
2024/02/19 05:31:45;;;;;;;14.00;2.83;;;9.40;99.90;;;;;;5004173;28;20233;-90
2024/02/19 05:34:11;;;;;;;3.30;1.03;;;9.50;99.90;;;;;;5001063;28;20592;-90
2024/02/19 05:36:37;;;;;;;5.73;1.23;;;9.60;99.90;;;;;;4996233;28;20229;-91
2024/02/19 05:39:03;;;;;;;13.50;1.20;;;9.40;99.90;;;;;;4994160;28;20215;-91
2024/02/19 05:41:29;;;;;;;1.07;1.07;;;9.70;99.90;;;;;;5016866;28;20576;-90
2024/02/19 05:43:56;;;;;;;1.13;0.83;;;9.50;99.90;;;;;;5000916;28;20198;-90
2024/02/19 05:46:22;;;;;;;1.03;1.00;;;9.40;99.90;;;;;;4996361;28;20261;-91
2024/02/19 05:48:48;;;;;;;0.40;0.40;;;9.30;99.90;;;;;;4991298;28;20234;-90
2024/02/19 05:51:15;;;;;;;0.60;0.60;;;9.40;99.90;;;;;;4982271;28;20633;-90
2024/02/19 05:53:41;;;;;;;3.47;1.80;;;9.60;99.90;;;;;;5011159;28;20214;-90
2024/02/19 05:56:09;;;;;;;9.97;0.73;;;9.60;99.90;;;;;;5003061;28;20294;-90
2024/02/19 05:58:39;;;;;;;1.53;1.43;;;9.30;99.90;;;;;;4999853;28;20719;-90
2024/02/19 06:01:05;;;;;;;0.33;0.33;;;9.60;99.90;;;;;;5032232;28;20718;-91
2024/02/19 06:03:33;;;;;;;0.40;0.40;;;9.50;99.90;;;;;;4994399;28;20230;-91
2024/02/19 06:05:59;;;;;;;1.80;1.20;;;9.50;99.90;;;;;;5026140;28;20230;-90
2024/02/19 06:08:25;;;;;;;0.40;0.40;;;9.50;99.90;;;;;;5010450;28;20213;-90
2024/02/19 06:10:50;;;;;;;0.30;0.30;;;9.40;99.90;;;;;;4987809;28;20662;-91
2024/02/19 06:13:16;;;;;;;2.20;0.47;;;9.70;99.90;;;;;;4999671;28;20324;-90
2024/02/19 06:15:42;;;;;;;0.13;0.13;;;9.40;99.90;;;;;;4989804;28;20241;-90
2024/02/19 06:18:08;;;;;;;1.90;0.73;;;9.40;99.90;;;;;;5018736;28;20214;-91
2024/02/19 06:20:36;;;;;;;0.63;0.40;;;9.60;99.90;;;;;;5000508;28;20305;-90
2024/02/19 06:23:03;;;;;;;1.47;1.00;;;9.60;99.90;;;;;;5017249;28;20613;-91
2024/02/19 06:25:29;;;;;;;4.30;1.13;;;9.50;99.90;;;;;;4993071;28;20234;-90
2024/02/19 06:27:55;;;;;;;1.17;0.67;;;9.10;99.90;;;;;;5019449;28;20288;-90
2024/02/19 06:30:21;;;;;;;0.60;0.60;;;9.20;99.90;;;;;;5003270;28;20247;-91
2024/02/19 06:32:48;;;;;;;0.30;0.30;;;9.10;99.90;;;;;;5005468;28;20749;-90
2024/02/19 06:35:14;;;;;;;0.57;0.50;;;9.40;99.90;;;;;;4997891;28;20210;-91
2024/02/19 06:37:40;;;;;;;2.90;1.30;;;9.10;99.90;;;;;;4996181;28;20234;-91
2024/02/19 06:40:07;;;;;;;10.73;0.47;;;9.50;99.90;;;;;;5018466;28;20237;-90
2024/02/19 06:42:32;;;;;;;1.77;1.67;;;9.30;99.90;;;;;;5001856;28;20635;-90
2024/02/19 06:44:58;;;;;;;3.20;2.20;;;9.20;99.90;;;;;;5013083;28;20237;-90
2024/02/19 06:47:24;;;;;;;0.50;0.50;;;9.50;99.90;;;;;;5014179;28;20250;-91
2024/02/19 06:49:50;;;;;;;5.37;1.87;;;9.50;99.90;;;;;;4999303;28;20289;-91
2024/02/19 06:52:18;;;;;;;1.50;1.07;;;9.40;99.90;;;;;;4996728;28;20227;-90
2024/02/19 06:54:45;;;;;;;1.37;1.03;;;9.10;99.90;;;;;;5014257;28;20222;-89
2024/02/19 06:57:11;;;;;;;0.47;0.47;;;9.40;99.90;;;;;;5000207;28;20567;-90
2024/02/19 06:59:36;;;;;;;1.53;1.03;;;9.30;99.90;;;;;;5034719;28;20225;-90
2024/02/19 07:02:02;;;;;;;2.27;2.13;;;9.60;99.90;;;;;;5004686;28;20260;-92
2024/02/19 07:04:28;;;;;;;6.13;1.33;;;9.30;99.90;;;;;;4997989;28;20238;-90
2024/02/19 07:06:56;;;;;;;0.40;0.40;;;9.30;99.90;;;;;;5002021;28;20233;-90
2024/02/19 07:09:22;;;;;;;1.37;1.33;;;9.40;99.90;;;;;;5018567;28;20239;-90
2024/02/19 07:11:48;;;;;;;1.13;1.13;;;9.30;99.90;;;;;;5003634;28;20238;-90
2024/02/19 07:14:13;;;;;;;1.50;0.40;;;9.50;99.90;;;;;;5002222;28;20197;-90
2024/02/19 07:16:39;;;;;;;15.50;1.13;;;9.40;99.90;;;;;;4997391;28;20924;-91
2024/02/19 07:19:05;;;;;;;4.17;2.47;;;9.60;99.90;;;;;;5002713;28;20348;-89
2024/02/19 07:21:31;;;;;;;12.87;2.37;;;9.40;99.90;;;;;;5003783;28;20277;-89
2024/02/19 07:23:57;;;;;;;3.80;1.30;;;9.50;99.90;;;;;;5002636;28;20221;-89
2024/02/19 07:26:25;;;;;;;0.60;0.47;;;9.70;99.90;;;;;;4993577;28;20269;-89
2024/02/19 07:28:51;;;;;;;3.73;2.17;;;9.70;99.90;;;;;;5003062;28;20266;-90
2024/02/19 07:31:17;;;;;;;0.37;0.37;;;9.60;99.90;;;;;;4984941;28;20257;-89
2024/02/19 07:33:43;;;;;;;1.00;0.90;;;9.50;99.90;;;;;;4984442;28;20219;-91
2024/02/19 07:36:10;;;;;;;0.27;0.27;;;9.80;99.90;;;;;;4983056;28;20722;-91
2024/02/19 07:38:36;;;;;;;8.10;2.27;;;9.80;99.90;;;;;;4984191;28;20243;-91
2024/02/19 07:41:01;;;;;;;0.60;0.60;;;9.80;99.90;;;;;;4994910;28;20672;-90
2024/02/19 07:43:27;;;;;;;0.50;0.50;;;9.80;99.90;;;;;;5008676;28;20277;-90
2024/02/19 07:45:55;;;;;;;0.33;0.33;;;9.60;99.90;;;;;;4990401;28;20234;-92
2024/02/19 07:48:20;;;;;;;2.33;1.33;;;9.90;99.90;;;;;;4966488;28;21331;-91
2024/02/19 07:50:46;;;;;;;2.53;0.70;;;9.70;99.90;;;;;;4990136;28;20234;-90
2024/02/19 07:53:15;;;;;;;0.80;0.77;;;9.70;99.90;;;;;;4958030;28;20255;-90
2024/02/19 07:55:41;;;;;;;3.63;1.90;;;9.70;99.90;;;;;;4974745;28;20231;-91
2024/02/19 07:58:07;;;;;;;1.83;1.03;;;10.00;99.90;;;;;;5000137;28;20227;-90
2024/02/19 08:00:33;;;;;;;0.40;0.40;;;9.90;99.90;;;;;;5009176;28;20223;-91
2024/02/19 08:02:59;;;;;;;6.60;2.20;;;10.00;99.90;;;;;;4992935;28;20215;-91
2024/02/19 08:05:24;;;;;;;3.33;1.40;;;10.10;99.90;;;;;;4993256;28;20755;-92
2024/02/19 08:07:50;;;;;;;2.40;1.50;;;10.20;99.90;;;;;;4993592;28;20726;-92
2024/02/19 08:10:16;;;;;;;4.73;0.63;;;10.10;99.90;;;;;;5005944;28;20224;-91
2024/02/19 08:12:42;;;;;;;0.53;0.53;;;10.20;99.90;;;;;;4982851;28;20240;-91
2024/02/19 08:15:08;;;;;;;1.27;0.80;;;10.30;99.90;;;;;;4981384;28;20623;-89
2024/02/19 08:17:34;;;;;;;1.90;0.80;;;10.30;99.90;;;;;;4993932;28;20238;-91
2024/02/19 08:20:00;;;;;;;4.03;2.03;;;10.30;99.90;;;;;;4993826;28;20211;-90
2024/02/19 08:22:26;;;;;;;16.03;1.07;;;10.30;99.90;;;;;;4992882;28;20281;-91
2024/02/19 08:24:52;;;;;;;5.83;1.13;;;10.40;99.90;;;;;;4992826;28;20747;-91
2024/02/19 08:27:17;;;;;;;4.13;1.27;;;10.60;99.90;;;;;;4993252;28;20219;-92
2024/02/19 08:29:43;;;;;;;3.93;1.57;;;10.50;99.90;;;;;;5007790;28;20219;-92
2024/02/19 08:32:09;;;;;;;5.83;0.90;;;10.70;99.90;;;;;;4993345;28;20278;-91
2024/02/19 08:34:35;;;;;;;0.90;0.90;;;10.50;99.90;;;;;;4996505;28;20325;-91
2024/02/19 08:37:01;;;;;;;11.57;1.40;;;10.60;99.90;;;;;;4971051;28;20227;-91
2024/02/19 08:39:27;;;;;;;3.70;1.07;;;10.60;99.90;;;;;;4976887;28;20254;-91
2024/02/19 08:41:57;;;;;;;0.20;0.20;;;10.50;99.90;;;;;;4990450;28;20302;-91
2024/02/19 08:44:23;;;;;;;0.50;0.47;;;10.60;99.90;;;;;;4999032;28;20192;-93
2024/02/19 08:46:49;;;;;;;1.13;1.10;;;10.70;99.90;;;;;;4993746;28;20243;-91
2024/02/19 08:49:15;;;;;;;0.43;0.43;;;10.50;99.90;;;;;;4989716;28;20716;-92
2024/02/19 08:51:41;;;;;;;1.87;1.00;;;10.60;99.90;;;;;;5000101;28;20262;-91
2024/02/19 08:54:06;;;;;;;4.20;1.30;;;10.60;99.90;;;;;;4988857;28;20231;-92
2024/02/19 08:56:34;;;;;;;4.80;1.07;;;10.60;99.90;;;;;;5007532;28;20215;-91
2024/02/19 08:59:03;;;;;;;2.10;0.63;;;10.50;99.90;;;;;;4993146;28;20199;-91
2024/02/19 09:01:29;;;;;;;1.50;1.20;;;10.50;99.90;;;;;;4973295;28;20243;-91
2024/02/19 09:03:55;;;;;;;2.87;1.37;;;10.40;99.90;;;;;;5002871;28;20203;-92
2024/02/19 09:06:21;;;;;;;0.57;0.57;;;10.40;99.90;;;;;;4990785;28;20289;-91
2024/02/19 09:08:46;;;;;;;5.83;1.20;;;10.50;99.90;;;;;;4992161;28;20226;-93
2024/02/19 09:11:12;;;;;;;3.33;1.43;;;10.60;99.90;;;;;;5007732;28;20238;-92
2024/02/19 09:13:38;;;;;;;6.40;1.83;;;10.50;99.90;;;;;;4992789;28;20263;-92
2024/02/19 09:16:05;;;;;;;3.57;0.70;;;10.40;99.90;;;;;;4988130;28;20215;-91
2024/02/19 09:18:31;;;;;;;1.13;1.03;;;10.40;99.90;;;;;;4988217;28;20755;-91
2024/02/19 09:20:56;;;;;;;4.90;2.70;;;10.40;99.90;;;;;;4989844;28;20309;-91
2024/02/19 09:23:22;;;;;;;3.43;2.07;;;10.40;99.90;;;;;;4991765;28;20196;-90
2024/02/19 09:25:48;;;;;;;2.13;1.40;;;10.40;99.90;;;;;;4994325;28;20241;-91
2024/02/19 09:28:14;;;;;;;1.57;0.97;;;10.50;99.90;;;;;;4999746;28;20207;-91
2024/02/19 09:30:40;;;;;;;1.87;1.60;;;10.60;99.90;;;;;;4999137;28;20234;-91
2024/02/19 09:33:06;;;;;;;2.63;1.13;;;10.70;99.90;;;;;;4999353;28;20246;-90
2024/02/19 09:35:36;;;;;;;1.53;1.23;;;10.50;99.90;;;;;;5000966;28;20214;-91
2024/02/19 09:38:02;;;;;;;2.10;0.83;;;10.60;99.90;;;;;;5018552;28;20225;-92
2024/02/19 09:40:33;;;;;;;1.43;1.23;;;10.60;99.90;;;;;;5013875;28;20229;-91
2024/02/19 09:43:00;;;;;;;1.83;1.27;;;10.70;99.90;;;;;;5034122;28;20223;-90
2024/02/19 09:45:26;;;;;;;3.93;0.97;;;10.60;99.90;;;;;;4999651;28;20231;-91
2024/02/19 09:48:00;;;;;;;3.00;1.73;;;10.70;99.90;;;;;;4999520;28;20246;-92
2024/02/19 09:50:28;;;;;;;1.77;1.67;;;10.70;99.90;;;;;;5017961;28;20190;-91
2024/02/19 09:53:02;;;;;;;1.33;1.10;;;10.70;99.90;;;;;;5020042;28;20305;-91
2024/02/19 09:55:28;;;;;;;1.43;1.10;;;10.70;99.90;;;;;;5018841;28;20226;-91
2024/02/19 09:57:56;;;;;;;3.00;1.83;;;10.70;99.90;;;;;;5002148;28;20231;-91
2024/02/19 10:00:23;;;;;;;1.93;1.03;;;10.60;99.90;;;;;;5001642;28;20218;-91
2024/02/19 10:02:50;;;;;;;1.47;1.37;;;10.70;99.90;;;;;;5003659;28;20223;-89
2024/02/19 10:05:16;;;;;;;1.70;0.93;;;10.80;99.90;;;;;;5000401;28;20194;-91
2024/02/19 10:07:42;;;;;;;5.47;2.17;;;10.90;99.90;;;;;;5000696;28;20678;-90
2024/02/19 10:10:09;;;;;;;1.77;1.27;;;10.70;99.90;;;;;;5014692;28;20312;-91
2024/02/19 10:12:35;;;;;;;11.33;2.40;;;10.80;99.90;;;;;;4998843;28;20338;-90
2024/02/19 10:15:01;;;;;;;4.70;2.20;;;10.60;99.90;;;;;;5002422;28;20288;-91
2024/02/19 10:17:29;;;;;;;5.90;3.40;;;10.60;99.90;;;;;;5001010;28;20295;-91
2024/02/19 10:20:05;;;;;;;2.37;1.87;;;10.60;99.90;;;;;;5010349;28;20757;-91
2024/02/19 10:22:32;;;;;;;0.50;0.50;;;10.80;99.90;;;;;;5024182;28;20695;-91
2024/02/19 10:25:00;;;;;;;2.30;1.70;;;10.70;99.90;;;;;;5013418;28;20214;-91
2024/02/19 10:27:31;;;;;;;0.37;0.37;;;10.80;99.90;;;;;;5014657;28;20226;-89
2024/02/19 10:29:59;;;;;;;2.70;2.50;;;10.70;99.90;;;;;;5015181;28;20234;-90
2024/02/19 10:32:26;;;;;;;2.73;1.17;;;10.80;99.90;;;;;;5000604;28;20230;-91
2024/02/19 10:34:52;;;;;;;1.83;1.20;;;10.90;99.90;;;;;;5017636;28;20665;-91
2024/02/19 10:37:18;;;;;;;2.20;2.10;;;10.90;99.90;;;;;;5016444;28;20227;-91
2024/02/19 10:39:44;;;;;;;0.87;0.87;;;11.10;99.90;;;;;;5000035;28;20234;-92
2024/02/19 10:42:10;;;;;;;2.20;2.03;;;11.20;99.90;;;;;;5000438;28;20707;-92
2024/02/19 10:44:36;;;;;;;1.03;1.03;;;11.30;99.90;;;;;;5000597;28;20227;-91
2024/02/19 10:47:04;;;;;;;1.40;1.13;;;11.30;99.90;;;;;;4998985;28;20203;-92
2024/02/19 10:49:30;;;;;;;4.03;1.73;;;11.30;99.90;;;;;;5017514;28;20258;-91
2024/02/19 10:51:57;;;;;;;0.77;0.63;;;11.30;99.90;;;;;;5016025;28;20231;-93
2024/02/19 10:54:23;;;;;;;3.13;0.90;;;11.30;99.90;;;;;;4996960;28;20645;-91
2024/02/19 10:56:50;;;;;;;1.60;1.50;;;11.30;99.90;;;;;;4996769;28;20218;-92
2024/02/19 10:59:20;;;;;;;3.37;1.57;;;11.50;99.90;;;;;;5000249;28;20229;-90
2024/02/19 11:01:48;;;;;;;11.60;1.37;;;11.40;99.90;;;;;;5001497;28;20207;-92
2024/02/19 11:04:27;;;;;;;1.43;1.37;;;11.40;99.90;;;;;;5033235;28;20227;-91
2024/02/19 11:06:55;;;;;;;0.40;0.40;;;11.40;99.90;;;;;;5002475;28;20230;-92
2024/02/19 11:09:31;;;;;;;1.00;1.00;;;11.40;99.90;;;;;;5016465;28;20262;-92
2024/02/19 11:11:58;;;;;;;1.50;1.40;;;11.40;99.90;;;;;;5018054;28;20326;-91
2024/02/19 11:14:27;;;;;;;8.03;1.27;;;11.20;99.90;;;;;;5020237;28;20207;-91
2024/02/19 11:16:59;;;;;;;4.60;1.80;;;11.20;99.90;;;;;;5019293;28;20253;-93
2024/02/19 11:19:26;;;;;;;1.73;1.27;;;11.10;99.90;;;;;;5019013;28;20272;-91
2024/02/19 11:22:08;;;;;;;4.27;1.27;;;11.10;99.90;;;;;;5001455;28;20223;-91
2024/02/19 11:24:34;;;;;;;1.53;0.73;;;10.90;99.90;;;;;;4997311;28;20222;-92
2024/02/19 11:27:02;;;;;;;0.50;0.50;;;11.00;99.90;;;;;;4996960;28;20227;-91
2024/02/19 11:29:28;;;;;;;1.53;1.00;;;10.90;99.90;;;;;;5010866;28;20205;-90
2024/02/19 11:32:05;;;;;;;2.13;1.63;;;10.90;99.90;;;;;;4968161;28;20310;-92
2024/02/19 11:34:32;;;;;;;1.27;1.17;;;11.10;99.90;;;;;;4982821;28;21118;-91
2024/02/19 11:37:03;;;;;;;1.73;1.10;;;11.00;99.90;;;;;;4990906;28;20219;-91
2024/02/19 11:39:30;;;;;;;5.23;1.13;;;11.00;99.90;;;;;;4992706;28;21311;-92
2024/02/19 11:41:58;;;;;;;0.40;0.40;;;10.90;99.90;;;;;;5009752;28;20231;-91
2024/02/19 11:44:24;;;;;;;4.13;1.10;;;11.10;99.90;;;;;;4992899;28;20286;-91
2024/02/19 11:46:52;;;;;;;0.80;0.80;;;11.00;99.90;;;;;;4994312;28;20192;-92
2024/02/19 11:49:19;;;;;;;6.50;1.90;;;10.90;99.90;;;;;;5010560;28;20864;-91
2024/02/19 11:51:46;;;;;;;5.60;2.20;;;11.00;99.90;;;;;;5003636;28;20267;-91
2024/02/19 11:54:17;;;;;;;1.73;1.17;;;10.90;99.90;;;;;;4982510;28;20251;-90
2024/02/19 11:56:52;;;;;;;0.60;0.50;;;10.90;99.90;;;;;;4999923;28;20238;-92
2024/02/19 11:59:26;;;;;;;1.70;1.40;;;11.00;99.90;;;;;;4997737;28;20198;-90
2024/02/19 12:01:56;;;;;;;1.33;0.97;;;11.10;99.90;;;;;;4985581;28;20289;-91
2024/02/19 12:04:24;;;;;;;1.77;1.67;;;11.00;99.90;;;;;;4993905;28;20230;-92
2024/02/19 12:06:50;;;;;;;1.30;1.23;;;11.10;99.90;;;;;;4994362;28;20292;-91
2024/02/19 12:09:16;;;;;;;1.70;1.40;;;11.00;99.90;;;;;;5008177;28;20699;-90
2024/02/19 12:11:46;;;;;;;3.87;1.23;;;11.00;99.90;;;;;;5010612;28;20239;-90
2024/02/19 12:14:20;;;;;;;10.53;0.73;;;11.00;99.90;;;;;;5009884;28;21388;-90
2024/02/19 12:16:52;;;;;;;1.33;1.00;;;11.00;99.90;;;;;;4999741;28;20254;-90
2024/02/19 12:19:21;;;;;;;1.63;1.53;;;10.90;99.90;;;;;;5019106;28;20228;-88
2024/02/19 12:21:47;;;;;;;1.50;1.20;;;10.90;99.90;;;;;;4964540;28;20227;-90
2024/02/19 12:24:13;;;;;;;0.93;0.73;;;10.70;99.90;;;;;;4968873;28;20677;-91
2024/02/19 12:26:39;;;;;;;1.47;1.37;;;10.70;99.90;;;;;;4990344;28;20719;-88
2024/02/19 12:29:05;;;;;;;4.20;1.30;;;10.80;99.90;;;;;;4983331;28;20191;-89
2024/02/19 12:31:31;;;;;;;1.63;1.47;;;10.80;99.90;;;;;;5008151;28;20232;-91
2024/02/19 12:33:56;;;;;;;2.00;1.87;;;10.70;99.90;;;;;;4990181;28;20310;-89
2024/02/19 12:36:22;;;;;;;7.50;1.27;;;10.80;99.90;;;;;;4965214;28;20219;-91
2024/02/19 12:38:51;;;;;;;0.60;0.60;;;10.80;99.90;;;;;;4990768;28;20234;-90
2024/02/19 12:41:17;;;;;;;8.97;1.73;;;10.70;99.90;;;;;;4984963;28;20222;-90
2024/02/19 12:43:44;;;;;;;1.87;1.03;;;10.80;99.90;;;;;;4983327;28;20176;-92
2024/02/19 12:46:12;;;;;;;7.03;1.27;;;10.90;99.90;;;;;;5006461;28;20701;-91
2024/02/19 12:48:42;;;;;;;2.23;1.20;;;10.80;99.90;;;;;;5008534;28;20249;-90